createdAt,value
2022-09-10T00:00:48.773Z,13.2
2022-09-10T00:05:55.633Z,13.3
2022-09-10T00:11:02.508Z,13.3
2022-09-10T00:16:09.415Z,13.2
2022-09-10T00:21:16.279Z,12.9
2022-09-10T00:26:23.160Z,12.8
2022-09-10T00:31:29.914Z,12.9
2022-09-10T00:36:36.820Z,13.1
2022-09-10T00:41:43.783Z,12.8
2022-09-10T00:46:50.638Z,12.6
2022-09-10T00:51:57.540Z,12.5
2022-09-10T00:57:04.296Z,12.6
2022-09-10T01:02:11.216Z,12.7
2022-09-10T01:07:18.056Z,12.4
2022-09-10T01:12:25.012Z,12.5
2022-09-10T01:17:31.825Z,12.6
2022-09-10T01:22:38.602Z,12.7
2022-09-10T01:27:45.443Z,12.4
2022-09-10T01:32:52.385Z,12.4
2022-09-10T01:37:59.194Z,12.3
2022-09-10T01:43:06.079Z,12
2022-09-10T01:48:12.954Z,12.5
2022-09-10T01:53:19.751Z,12.5
2022-09-10T01:58:26.571Z,12.7
2022-09-10T02:03:33.505Z,12.8
2022-09-10T02:08:40.308Z,12.7
2022-09-10T02:13:47.280Z,12.7
2022-09-10T02:18:54.191Z,12.9
2022-09-10T02:24:01.017Z,12.8
2022-09-10T02:29:07.812Z,12.8
2022-09-10T02:34:14.772Z,12.6
2022-09-10T02:39:21.598Z,12.8
2022-09-10T02:44:28.461Z,12.5
2022-09-10T02:49:35.319Z,12
2022-09-10T02:54:42.214Z,11.7
2022-09-10T02:59:49.044Z,11.4
2022-09-10T03:04:55.971Z,11.3
2022-09-10T03:10:02.766Z,11.2
2022-09-10T03:15:09.629Z,11.1
2022-09-10T03:20:16.487Z,10.6
2022-09-10T03:25:23.356Z,10.8
2022-09-10T03:30:30.243Z,11
2022-09-10T03:35:37.112Z,11
2022-09-10T03:40:43.965Z,10.5
2022-09-10T03:45:50.815Z,10.4
2022-09-10T03:50:57.649Z,10.8
2022-09-10T03:56:04.515Z,10.6
2022-09-10T04:01:11.355Z,10.3
2022-09-10T04:06:18.153Z,10.5
2022-09-10T04:11:24.966Z,10.3
2022-09-10T04:16:31.780Z,10.4
2022-09-10T04:21:38.571Z,10.4
2022-09-10T04:26:45.403Z,10.4
2022-09-10T04:31:52.242Z,10.3
2022-09-10T04:36:59.066Z,10.5
2022-09-10T04:42:05.855Z,10.9
2022-09-10T04:47:12.711Z,11.3
2022-09-10T04:52:19.539Z,10.7
2022-09-10T04:57:26.314Z,10.8
2022-09-10T05:02:33.130Z,11.7
2022-09-10T05:07:39.918Z,12
2022-09-10T05:12:46.718Z,12.3
2022-09-10T05:17:53.510Z,12.6
2022-09-10T05:23:00.333Z,12.9
2022-09-10T05:28:07.172Z,13.1
2022-09-10T05:33:14.000Z,13.5
2022-09-10T05:38:20.832Z,13.5
2022-09-10T05:43:27.629Z,13.5
2022-09-10T05:48:34.415Z,13.4
2022-09-10T05:53:41.244Z,13.7
2022-09-10T05:58:48.073Z,13.8
2022-09-10T06:03:54.887Z,14.7
2022-09-10T06:09:01.693Z,15.3
2022-09-10T06:14:08.499Z,15.3
2022-09-10T06:19:15.371Z,15.1
2022-09-10T06:24:22.141Z,15.3
2022-09-10T06:29:28.922Z,15.3
2022-09-10T06:34:35.719Z,15.2
2022-09-10T06:39:42.520Z,15.2
2022-09-10T06:44:49.282Z,15.6
2022-09-10T06:49:56.089Z,15.8
2022-09-10T06:55:02.884Z,15.7
2022-09-10T07:00:09.708Z,15.8
2022-09-10T07:05:16.497Z,16
2022-09-10T07:10:23.293Z,16.1
2022-09-10T07:15:30.218Z,16.4
2022-09-10T07:20:36.897Z,17
2022-09-10T07:25:43.769Z,16.6
2022-09-10T07:30:50.608Z,18.9
2022-09-10T07:35:57.451Z,20.9
2022-09-10T07:41:04.302Z,20.5
2022-09-10T07:46:11.140Z,22
2022-09-10T07:51:17.949Z,20.5
2022-09-10T07:56:24.805Z,18.1
2022-09-10T08:01:31.649Z,18.1
2022-09-10T08:06:38.459Z,18
2022-09-10T08:11:45.297Z,17.9
2022-09-10T08:16:52.143Z,18.5
2022-09-10T08:21:58.967Z,19.1
2022-09-10T08:27:05.775Z,18
2022-09-10T08:32:12.646Z,20.9
2022-09-10T08:37:19.410Z,19.4
2022-09-10T08:42:26.243Z,21
2022-09-10T08:47:33.102Z,22.2
2022-09-10T08:52:39.933Z,23.4
2022-09-10T08:57:46.777Z,23.1
2022-09-10T09:02:53.634Z,21.9
2022-09-10T09:13:07.293Z,22.7
2022-09-10T09:18:14.140Z,22.6
2022-09-10T09:23:20.967Z,18.6
2022-09-10T09:28:27.787Z,18.3
2022-09-10T09:33:34.610Z,19.3
2022-09-10T09:38:41.441Z,23.8
2022-09-10T09:43:48.267Z,24.4
2022-09-10T09:48:55.083Z,22.2
2022-09-10T09:54:01.955Z,23.2
2022-09-10T09:59:08.786Z,24.1
2022-09-10T10:04:15.609Z,24.9
2022-09-10T10:09:22.442Z,24.2
2022-09-10T10:14:29.266Z,26.6
2022-09-10T10:19:36.131Z,21.9
2022-09-10T10:24:42.945Z,23.8
2022-09-10T10:29:49.751Z,24.2
2022-09-10T10:34:56.567Z,21.8
2022-09-10T10:40:03.395Z,19.9
2022-09-10T10:45:10.174Z,19.9
2022-09-10T10:50:17.009Z,19.3
2022-09-10T10:55:23.852Z,19.2
2022-09-10T11:00:30.797Z,19
2022-09-10T11:05:37.607Z,19.6
2022-09-10T11:10:44.365Z,24.8
2022-09-10T11:15:51.245Z,24
2022-09-10T11:20:57.984Z,23.5
2022-09-10T11:26:04.875Z,24.9
2022-09-10T11:31:11.665Z,22.8
2022-09-10T11:36:18.543Z,23.3
2022-09-10T11:41:25.323Z,26.9
2022-09-10T11:46:32.131Z,21
2022-09-10T11:51:38.998Z,20.8
2022-09-10T11:56:45.771Z,20.8
2022-09-10T12:01:52.606Z,20
2022-09-10T12:06:59.411Z,19.8
2022-09-10T12:12:06.228Z,19.5
2022-09-10T12:17:13.016Z,19.1
2022-09-10T12:22:19.824Z,19.8
2022-09-10T12:27:26.663Z,23
2022-09-10T12:32:33.484Z,22.3
2022-09-10T12:37:40.304Z,21.5
2022-09-10T12:42:47.125Z,21.9
2022-09-10T12:47:53.989Z,21.8
2022-09-10T12:53:00.790Z,21
2022-09-10T12:58:07.577Z,20.8
2022-09-10T13:03:14.383Z,21.7
2022-09-10T13:08:21.206Z,21.4
2022-09-10T13:13:28.076Z,21.4
2022-09-10T13:18:34.864Z,22
2022-09-10T13:23:41.656Z,23.2
2022-09-10T13:28:48.494Z,22.8
2022-09-10T13:33:55.323Z,23.9
2022-09-10T13:39:02.138Z,24.4
2022-09-10T13:44:09.018Z,24.6
2022-09-10T13:49:15.800Z,27.3
2022-09-10T13:54:22.612Z,30.1
2022-09-10T13:59:29.447Z,29.4
2022-09-10T14:04:36.275Z,27.6
2022-09-10T14:09:43.090Z,24.2
2022-09-10T14:14:49.887Z,27.9
2022-09-10T14:19:56.683Z,27
2022-09-10T14:25:03.513Z,27.7
2022-09-10T14:30:10.293Z,29.5
2022-09-10T14:35:17.114Z,26.8
2022-09-10T14:40:23.943Z,22.8
2022-09-10T14:45:30.763Z,21.6
2022-09-10T14:50:37.577Z,21.6
2022-09-10T14:55:44.384Z,21.1
2022-09-10T15:00:51.197Z,21.2
2022-09-10T15:05:58.013Z,21.7
2022-09-10T15:11:04.859Z,24.8
2022-09-10T15:16:11.655Z,28.5
2022-09-10T15:21:18.453Z,25.2
2022-09-10T15:26:25.268Z,23.1
2022-09-10T15:31:32.090Z,21.1
2022-09-10T15:36:38.938Z,20.8
2022-09-10T15:41:45.711Z,20.8
2022-09-10T15:46:52.508Z,25.9
2022-09-10T15:51:59.330Z,23.3
2022-09-10T15:57:06.133Z,22.3
2022-09-10T16:02:12.956Z,21.9
2022-09-10T16:07:19.816Z,22.9
2022-09-10T16:12:26.602Z,21.9
2022-09-10T16:17:33.379Z,21.5
2022-09-10T16:22:40.209Z,20.9
2022-09-10T16:27:47.071Z,20.3
2022-09-10T16:32:53.858Z,20.2
2022-09-10T16:38:00.684Z,20
2022-09-10T16:43:07.458Z,20.2
2022-09-10T16:48:14.353Z,20.3
2022-09-10T16:53:21.123Z,20.3
2022-09-10T16:58:27.974Z,20.3
2022-09-10T17:03:34.785Z,20.2
2022-09-10T17:08:41.614Z,19.7
2022-09-10T17:13:48.477Z,19.7
2022-09-10T17:18:55.241Z,19.3
2022-09-10T17:24:02.058Z,19.2
2022-09-10T17:29:08.896Z,19
2022-09-10T17:34:15.732Z,18.5
2022-09-10T17:39:22.531Z,18.1
2022-09-10T17:44:29.378Z,17.9
2022-09-10T17:49:36.187Z,17.8
2022-09-10T17:54:43.018Z,17.6
2022-09-10T17:59:49.843Z,17.5
2022-09-10T18:04:56.659Z,17.4
2022-09-10T18:10:03.506Z,16.9
2022-09-10T18:15:10.459Z,16.5
2022-09-10T18:20:17.257Z,16.3
2022-09-10T18:25:24.146Z,16.1
2022-09-10T18:30:30.967Z,15.9
2022-09-10T18:35:37.829Z,15.8
2022-09-10T18:40:44.687Z,15.8
2022-09-10T18:45:51.539Z,15.8
2022-09-10T18:50:58.409Z,15.6
2022-09-10T18:56:05.270Z,15.4
2022-09-10T19:01:12.136Z,15.4
2022-09-10T19:06:19.037Z,15.4
2022-09-10T19:11:25.851Z,15.3
2022-09-10T19:16:32.715Z,15.2
2022-09-10T19:21:39.573Z,15.1
2022-09-10T19:26:46.506Z,15.2
2022-09-10T19:31:53.323Z,15
2022-09-10T19:37:00.303Z,14.9
2022-09-10T19:42:07.056Z,14.8
2022-09-10T19:47:13.982Z,14.7
2022-09-10T19:52:20.781Z,14.6
2022-09-10T19:57:27.625Z,14.5
2022-09-10T20:02:34.452Z,14.4
2022-09-10T20:07:41.315Z,14.2
2022-09-10T20:12:48.241Z,14.3
2022-09-10T20:17:55.099Z,14.1
2022-09-10T20:23:01.914Z,13.8
2022-09-10T20:28:08.789Z,13.7
2022-09-10T20:33:15.673Z,13.9
2022-09-10T20:38:22.522Z,14
2022-09-10T20:43:29.455Z,13.8
2022-09-10T20:48:36.277Z,13.4
2022-09-10T20:53:43.153Z,13.6
2022-09-10T20:58:50.064Z,13.2
2022-09-10T21:03:56.954Z,13.2
2022-09-10T21:09:03.760Z,13.2
2022-09-10T21:14:10.665Z,13.4
2022-09-10T21:19:17.542Z,13.3
2022-09-10T21:24:24.393Z,13.3
2022-09-10T21:29:31.295Z,13.2
2022-09-10T21:34:38.163Z,13.1
2022-09-10T21:39:45.022Z,13
2022-09-10T21:44:51.882Z,12.8
2022-09-10T21:49:58.763Z,12.7
2022-09-10T22:00:12.503Z,12.5
2022-09-10T22:05:19.361Z,12.3
2022-09-10T22:10:26.347Z,12.3
2022-09-10T22:15:33.189Z,12.2
2022-09-10T22:20:39.983Z,12.4
2022-09-10T22:25:46.833Z,12.1
2022-09-10T22:30:53.731Z,12.1
2022-09-10T22:36:00.623Z,12.2
2022-09-10T22:41:07.443Z,12.3
2022-09-10T22:46:14.298Z,12.2
2022-09-10T22:51:21.153Z,12
2022-09-10T22:56:28.007Z,12
2022-09-10T23:01:34.873Z,12.1
2022-09-10T23:06:41.774Z,12.1
2022-09-10T23:11:48.632Z,11.9
2022-09-10T23:16:55.482Z,12
2022-09-10T23:22:02.364Z,11.7
2022-09-10T23:27:09.279Z,11.6
2022-09-10T23:32:16.103Z,11.8
2022-09-10T23:37:22.953Z,11.7
2022-09-10T23:42:29.831Z,11.4
2022-09-10T23:47:36.706Z,11.2
2022-09-10T23:52:43.552Z,11.1
2022-09-10T23:57:50.430Z,11
